This is the latest recevied weather packets stored in our database for station/object SALT. If no packets are shown the sender has not sent any weather packets the latest 10 day(s).
| Time | Temp. | Humidity | Pressure | Rain* | Wind** | Luminosity | Snow |
|---|---|---|---|---|---|---|---|
| 1778266492 | 12.78° C | 47% | 1021.5 hPa | 0 mm | - | - | - |
| 1778265890 | 12.78° C | 47% | 1021.4 hPa | 0 mm | - | - | - |
| 1778265288 | 12.78° C | 44% | 1021.3 hPa | 0 mm | - | - | - |
| 1778264685 | 12.78° C | 47% | 1021.4 hPa | 0 mm | - | - | - |
| 1778264082 | 12.22° C | 47% | 1021.4 hPa | 0 mm | - | - | - |
| 1778263480 | 12.22° C | 47% | 1021.6 hPa | 0 mm | - | - | - |
| 1778262874 | 12.22° C | 47% | 1021.5 hPa | 0 mm | - | - | - |
| 1778262272 | 12.78° C | 44% | 1021.6 hPa | 0 mm | - | - | - |
| 1778261669 | 13.89° C | 38% | 1021.6 hPa | 0 mm | - | - | - |
| 1778261102 | 13.89° C | 33% | 1021.4 hPa | 0 mm | - | - | - |
| 1778261066 | 13.89° C | 33% | 1021.4 hPa | 0 mm | - | - | - |
| 1778260464 | 13.33° C | 33% | 1021.4 hPa | 0 mm | - | - | - |
| 1778259899 | 13.89° C | 33% | 1021.4 hPa | 0 mm | - | - | - |
| 1778259861 | 13.89° C | 33% | 1021.4 hPa | 0 mm | - | - | - |
| 1778259256 | 13.33° C | 35% | 1021.4 hPa | 0 mm | - | - | - |
| 1778258654 | 13.33° C | 33% | 1021.3 hPa | 0 mm | - | - | - |
| 1778258051 | 12.78° C | 35% | 1021.2 hPa | 0 mm | - | - | - |
| 1778257572 | 12.78° C | 33% | 1021.3 hPa | 0 mm | - | - | - |
| 1778257448 | 12.78° C | 33% | 1021.3 hPa | 0 mm | - | - | - |
| 1778256846 | 12.78° C | 35% | 1021.4 hPa | 0 mm | - | - | - |
| 1778256243 | 12.22° C | 34% | 1021.2 hPa | 0 mm | - | - | - |
| 1778255638 | 12.22° C | 35% | 1021.1 hPa | 0 mm | - | - | - |
| 1778255036 | 12.22° C | 35% | 1021.2 hPa | 0 mm | - | - | - |
| 1778254432 | 11.67° C | 35% | 1021.3 hPa | 0 mm | - | - | - |
| 1778253830 | 11.67° C | 37% | 1021.2 hPa | 0 mm | - | - | - |
* Rain latest 24 hours (hover to see other rain measurements)
** Current wind speed in m/s (hover to see current wind gust speed)